CheckWX is a tool to help pilots better visualize weather data.  It is not intended as a substitute for an official pre-flight weather briefing.

07:50:34 UTC

CYXL TAF
Sioux Lookout Airport
Sioux Lookout, Canada
TAF AMD CYXL 260540Z 2605/2614 VRB03KT 2SM -SN BR OVC002 TEMPO 2605/2614 6SM BR OVC008 PROB30 2605/2614 2SM -FZDZ BR RMK NXT FCST BY 260800Z

Jan-26@
05:00 UTC

Jan-26 @ 05:00 UTC

Jan-26@
14:00 UTC

Jan-26 @ 14:00 UTC

TAF AMD CYXL 260540Z 2605/2614 VRB03KT 2SM -SN BR OVC002
Wind
  • Variable at 3 KTS
Conditions
Light Snow, Mist
Cloud Levels
  • Overcast at 200' AGL

Jan-26@
05:00 UTC

Jan-26 @ 05:00 UTC

Jan-26@
14:00 UTC

Jan-26 @ 14:00 UTC

TEMPO 2605/2614 6SM BR OVC008

Temporary

Temporary Changes expected for less than half the time period

Conditions
Mist
Cloud Levels
  • Overcast at 800' AGL

Jan-26@
05:00 UTC

Jan-26 @ 05:00 UTC

Jan-26@
14:00 UTC

Jan-26 @ 14:00 UTC

PROB30 2605/2614 2SM -FZDZ BR RMK NXT FCST BY 260800Z

Probable - 30% Likelihood

Probable - 30% Likelihood during this time.

Conditions
Light Freezing Light Drizzle, Mist